Terminal Aerodrome Forecast
Issued by NWS

Home | Current Version | Previous Version | Text Only | Print | Product List | Glossary On
Versions: 1 2 3 4 5 6 7 8 9 10 11 12 13 14 15 16 17 18 19 20 21 22 23 24
000
FTUS43 KDVN 252001 AAA
TAFBRL
TAF AMD
KBRL 252001Z 2520/2618 05014G20KT P6SM OVC008
     FM260000 05015G20KT P6SM OVC012
     FM260400 04010KT P6SM OVC020
     FM260700 04009KT P6SM SCT020
     FM261500 04009KT P6SM SKC=

USA.gov is the U.S. government's official web portal to all federal, state and local government web resources and services.